Time;durP1;ratioP1;P1;durP2;ratioP2;P2;SDS_P1;SDS_P2;PMS_P1;PMS_P2;Temp;Humidity;BMP_temperature;BMP_pressure;BME280_temperature;BME280_humidity;BME280_pressure;Samples;Min_cycle;Max_cycle;Signal;HPM_P1;HPM_P2
2023/04/09 00:01:41;;;;;;;;;;;;;;;10.66;95.01;102510.78;10505263;28;19924;-64
2023/04/09 00:06:43;;;;;;;;;;;;;;;10.40;100.00;102510.66;10505359;28;19924;-64
2023/04/09 00:11:45;;;;;;;;;;;;;;;10.57;97.40;102520.66;10505845;28;19928;-64
2023/04/09 00:16:48;;;;;;;;;;;;;;;10.49;96.71;102512.16;10504163;28;20295;-64
2023/04/09 00:21:51;;;;;;;;;;;;;;;10.35;99.52;102512.53;10502740;28;20442;-64
2023/04/09 00:26:53;;;;;;;;;;;;;;;10.41;99.10;102509.75;10502658;28;19947;-64
2023/04/09 00:31:55;;;;;;;;;;;;;;;10.46;100.00;102501.78;10503009;28;19925;-64
2023/04/09 00:36:58;;;;;;;;;;;;;;;10.29;100.00;102496.13;10501858;28;19976;-64
2023/04/09 00:42:03;;;;;;;;;;;;;;;10.28;99.57;102497.03;10500956;28;19928;-64
2023/04/09 00:47:05;;;;;;;;;;;;;;;10.29;100.00;102488.25;10502449;28;19936;-65
2023/04/09 00:52:07;;;;;;;;;;;;;;;10.29;97.47;102486.53;10503217;28;19981;-64
2023/04/09 00:57:11;;;;;;;;;;;;;;;10.25;100.00;102490.13;10524419;28;19924;-64
2023/04/09 01:02:13;;;;;;;;;;;;;;;10.12;100.00;102480.91;10518468;28;19986;-65
2023/04/09 01:07:18;;;;;;;;;;;;;;;9.91;100.00;102485.84;10501017;28;19964;-64
2023/04/09 01:12:24;;;;;;;;;;;;;;;10.16;99.26;102478.16;10501633;28;19924;-64
2023/04/09 01:17:30;;;;;;;;;;;;;;;9.93;97.98;102475.34;10502892;28;19932;-64
2023/04/09 01:22:51;;;;;;;;;;;;;;;9.63;99.88;102470.91;10501359;28;20375;-64
2023/04/09 01:27:58;;;;;;;;;;;;;;;10.00;95.86;102469.03;10501993;28;19978;-64
2023/04/09 01:33:00;;;;;;;;;;;;;;;10.04;96.42;102470.66;10500977;28;19924;-64
2023/04/09 01:38:03;;;;;;;;;;;;;;;9.91;96.11;102477.16;10500948;28;19924;-64
2023/04/09 01:43:05;;;;;;;;;;;;;;;9.98;96.45;102476.91;10500947;28;19924;-64
2023/04/09 01:48:07;;;;;;;;;;;;;;;10.11;95.60;102461.72;10515671;28;20513;-64
2023/04/09 01:53:09;;;;;;;;;;;;;;;10.03;95.40;102461.09;10500763;28;19973;-64
2023/04/09 01:58:12;;;;;;;;;;;;;;;9.86;94.98;102461.56;10500515;28;19924;-65
2023/04/09 02:03:21;;;;;;;;;;;;;;;10.03;96.32;102464.56;10497477;28;19931;-64
2023/04/09 02:08:23;;;;;;;;;;;;;;;10.00;94.32;102471.66;10499210;28;19924;-64
2023/04/09 02:13:26;;;;;;;;;;;;;;;9.97;97.11;102461.25;10499243;28;20034;-64
2023/04/09 02:18:28;;;;;;;;;;;;;;;9.89;98.67;102452.78;10499450;28;20022;-64
2023/04/09 02:23:33;;;;;;;;;;;;;;;9.93;99.03;102464.88;10499017;28;19925;-64
2023/04/09 02:28:36;;;;;;;;;;;;;;;9.95;96.02;102469.19;10498579;28;19925;-64
2023/04/09 02:33:38;;;;;;;;;;;;;;;9.93;98.92;102463.09;10499153;28;19935;-64
2023/04/09 02:38:41;;;;;;;;;;;;;;;10.01;97.13;102457.66;10510797;28;19924;-64
2023/04/09 02:43:43;;;;;;;;;;;;;;;9.76;98.93;102460.97;10498903;28;19924;-64
2023/04/09 02:48:45;;;;;;;;;;;;;;;9.83;99.96;102453.81;10498070;28;20375;-64
2023/04/09 02:53:47;;;;;;;;;;;;;;;9.49;100.00;102454.72;10499643;28;20039;-64
2023/04/09 02:58:52;;;;;;;;;;;;;;;9.71;99.47;102443.69;10527638;28;19928;-64
2023/04/09 03:03:55;;;;;;;;;;;;;;;9.86;97.70;102440.63;10515703;28;20371;-64
2023/04/09 03:08:57;;;;;;;;;;;;;;;9.68;98.52;102449.84;10518905;28;20457;-64
2023/04/09 03:14:00;;;;;;;;;;;;;;;9.77;98.73;102441.75;10501209;28;19924;-64
2023/04/09 03:19:02;;;;;;;;;;;;;;;9.58;99.77;102437.94;10534159;28;20352;-64
2023/04/09 03:24:04;;;;;;;;;;;;;;;9.36;99.84;102442.88;10497209;28;19971;-64
2023/04/09 03:29:07;;;;;;;;;;;;;;;9.61;96.84;102437.84;10526576;28;19928;-64
2023/04/09 03:34:09;;;;;;;;;;;;;;;9.28;99.00;102430.88;10508174;28;19925;-64
2023/04/09 03:39:11;;;;;;;;;;;;;;;9.55;99.80;102425.81;10496687;28;19928;-64
2023/04/09 03:44:13;;;;;;;;;;;;;;;9.59;99.08;102418.72;10497245;28;19931;-64
2023/04/09 03:49:15;;;;;;;;;;;;;;;9.34;100.00;102411.53;10496844;28;19947;-64
2023/04/09 03:54:17;;;;;;;;;;;;;;;9.21;100.00;102411.03;10533613;28;20342;-64
2023/04/09 03:59:20;;;;;;;;;;;;;;;9.06;99.75;102409.66;10495323;28;19924;-64
2023/04/09 04:04:22;;;;;;;;;;;;;;;8.79;100.00;102418.16;10519988;28;19924;-64
2023/04/09 04:09:25;;;;;;;;;;;;;;;8.60;100.00;102423.81;10513317;28;19932;-64
2023/04/09 04:14:27;;;;;;;;;;;;;;;8.31;100.00;102434.88;10494207;28;19925;-64
2023/04/09 04:19:29;;;;;;;;;;;;;;;8.26;100.00;102429.75;10495167;28;20375;-64
2023/04/09 04:24:32;;;;;;;;;;;;;;;8.11;100.00;102425.72;10537102;28;19928;-64
2023/04/09 04:29:34;;;;;;;;;;;;;;;8.03;100.00;102432.00;10497171;28;19924;-64
2023/04/09 04:34:36;;;;;;;;;;;;;;;7.72;100.00;102415.22;10503290;28;19950;-64
2023/04/09 04:39:38;;;;;;;;;;;;;;;7.58;100.00;102423.31;10503703;28;19928;-64
2023/04/09 04:44:41;;;;;;;;;;;;;;;7.74;100.00;102430.81;10503697;28;19925;-64
2023/04/09 04:49:43;;;;;;;;;;;;;;;7.16;100.00;102435.34;10502669;28;20430;-64
2023/04/09 04:54:45;;;;;;;;;;;;;;;7.11;100.00;102431.94;10502721;28;19924;-64
2023/04/09 04:59:47;;;;;;;;;;;;;;;7.06;100.00;102440.72;10503070;28;19924;-64
2023/04/09 05:04:49;;;;;;;;;;;;;;;6.82;100.00;102435.88;10503048;28;19924;-64
2023/04/09 05:09:52;;;;;;;;;;;;;;;6.87;100.00;102437.50;10502635;28;19924;-64
2023/04/09 05:14:55;;;;;;;;;;;;;;;6.96;100.00;102439.13;10500892;28;20349;-64
2023/04/09 05:19:57;;;;;;;;;;;;;;;6.86;100.00;102430.63;10500738;28;19925;-64
2023/04/09 05:24:59;;;;;;;;;;;;;;;6.94;100.00;102433.06;10514953;28;19928;-64
2023/04/09 05:30:02;;;;;;;;;;;;;;;6.83;100.00;102432.41;10527289;28;19931;-64
2023/04/09 05:35:04;;;;;;;;;;;;;;;6.98;100.00;102432.16;10501153;28;19925;-64
2023/04/09 05:40:06;;;;;;;;;;;;;;;6.94;100.00;102435.69;10500618;28;19932;-64
2023/04/09 05:45:09;;;;;;;;;;;;;;;6.92;100.00;102437.44;10500157;28;20359;-64
2023/04/09 05:50:11;;;;;;;;;;;;;;;6.79;100.00;102438.53;10521487;28;19938;-64
2023/04/09 05:55:14;;;;;;;;;;;;;;;7.03;100.00;102439.91;10514766;28;20364;-64
2023/04/09 06:00:17;;;;;;;;;;;;;;;7.04;100.00;102439.00;10498120;28;19924;-63
2023/04/09 06:05:19;;;;;;;;;;;;;;;7.01;100.00;102444.25;10499131;28;19932;-63
2023/04/09 06:10:23;;;;;;;;;;;;;;;6.94;100.00;102440.88;10500225;28;19924;-64
2023/04/09 06:15:26;;;;;;;;;;;;;;;7.10;100.00;102440.66;10534060;28;20424;-64
2023/04/09 06:20:28;;;;;;;;;;;;;;;7.25;100.00;102438.66;10512715;28;19928;-67
2023/04/09 06:25:30;;;;;;;;;;;;;;;7.24;100.00;102441.28;10498738;28;20330;-67
2023/04/09 06:30:34;;;;;;;;;;;;;;;7.27;100.00;102446.44;10500731;28;19947;-67
2023/04/09 06:35:36;;;;;;;;;;;;;;;7.48;100.00;102449.53;10536763;28;19924;-67
2023/04/09 06:40:39;;;;;;;;;;;;;;;7.17;100.00;102453.53;10498438;28;19936;-67
2023/04/09 06:45:41;;;;;;;;;;;;;;;7.46;100.00;102446.97;10497223;28;20367;-67
2023/04/09 06:50:43;;;;;;;;;;;;;;;7.28;100.00;102455.09;10497038;28;20303;-67
2023/04/09 06:55:46;;;;;;;;;;;;;;;7.87;100.00;102454.91;10502681;28;20275;-67
2023/04/09 07:00:48;;;;;;;;;;;;;;;8.27;99.67;102460.19;10524609;28;20375;-67
2023/04/09 07:05:50;;;;;;;;;;;;;;;7.95;100.00;102464.31;10537689;28;20374;-67
2023/04/09 07:10:53;;;;;;;;;;;;;;;8.45;97.67;102463.31;10496876;28;20425;-67
2023/04/09 07:15:55;;;;;;;;;;;;;;;8.91;98.39;102463.13;10514629;28;19924;-67
2023/04/09 07:20:57;;;;;;;;;;;;;;;8.79;94.89;102463.41;10517773;28;20398;-67
2023/04/09 07:26:01;;;;;;;;;;;;;;;9.09;95.59;102456.63;10497390;28;20291;-66
2023/04/09 07:31:03;;;;;;;;;;;;;;;9.51;91.48;102459.91;10492657;28;20391;-67
2023/04/09 07:36:05;;;;;;;;;;;;;;;9.84;88.18;102450.28;10497662;28;19925;-67
2023/04/09 07:41:09;;;;;;;;;;;;;;;10.15;88.21;102445.03;10477923;28;19925;-67
2023/04/09 07:46:17;;;;;;;;;;;;;;;11.42;83.19;102447.16;10493527;28;20429;-67
2023/04/09 07:51:19;;;;;;;;;;;;;;;11.96;80.65;102450.50;10498295;28;19929;-68
2023/04/09 07:56:21;;;;;;;;;;;;;;;12.09;79.45;102448.31;10497028;28;19924;-67
2023/04/09 08:01:25;;;;;;;;;;;;;;;12.51;76.17;102444.94;10479586;28;19925;-67
2023/04/09 08:06:27;;;;;;;;;;;;;;;12.49;74.32;102449.41;10497512;28;19924;-67
2023/04/09 08:11:29;;;;;;;;;;;;;;;12.46;74.35;102452.16;10503299;28;19932;-67
2023/04/09 08:16:31;;;;;;;;;;;;;;;13.15;73.54;102436.19;10504833;28;19928;-67
2023/04/09 08:21:37;;;;;;;;;;;;;;;13.10;69.93;102435.53;10505486;28;19924;-67
2023/04/09 08:26:40;;;;;;;;;;;;;;;13.33;67.62;102445.13;10505351;28;19950;-67
2023/04/09 08:31:42;;;;;;;;;;;;;;;14.17;67.63;102446.69;10503371;28;20314;-67
2023/04/09 08:36:46;;;;;;;;;;;;;;;13.77;67.37;102448.50;10504399;28;20452;-67
2023/04/09 08:41:48;;;;;;;;;;;;;;;14.78;66.00;102453.50;10487146;28;19928;-67
2023/04/09 08:46:51;;;;;;;;;;;;;;;15.30;61.57;102442.97;10503347;28;19925;-67
2023/04/09 08:51:53;;;;;;;;;;;;;;;16.29;61.93;102446.56;10504358;28;19932;-67
2023/04/09 08:56:56;;;;;;;;;;;;;;;15.78;59.82;102437.88;10503561;28;19950;-68
2023/04/09 09:02:08;;;;;;;;;;;;;;;15.27;57.89;102429.09;10502811;28;19924;-67
2023/04/09 09:07:11;;;;;;;;;;;;;;;16.51;58.64;102426.84;10501908;28;20279;-67
2023/04/09 09:12:29;;;;;;;;;;;;;;;15.22;58.85;102424.03;10502486;28;19925;-67
2023/04/09 09:17:33;;;;;;;;;;;;;;;16.41;56.74;102425.63;10501316;28;20375;-67
2023/04/09 09:22:47;;;;;;;;;;;;;;;17.33;55.18;102420.34;10502582;28;19925;-67
2023/04/09 09:27:50;;;;;;;;;;;;;;;18.34;54.72;102415.84;10501923;28;19927;-68
2023/04/09 09:33:03;;;;;;;;;;;;;;;18.78;54.62;102408.56;10481046;22;20363;-66
2023/04/09 09:38:05;;;;;;;;;;;;;;;18.81;52.47;102408.34;10460100;28;19958;-69
2023/04/09 09:43:07;;;;;;;;;;;;;;;16.76;54.13;102407.78;10459158;28;20268;-70
2023/04/09 09:48:10;;;;;;;;;;;;;;;15.76;53.13;102411.53;10460766;28;19925;-69
2023/04/09 09:53:12;;;;;;;;;;;;;;;18.16;52.25;102404.59;10458841;28;20011;-69
2023/04/09 09:58:26;;;;;;;;;;;;;;;19.39;51.26;102398.22;10459816;28;20402;-69
2023/04/09 10:03:31;;;;;;;;;;;;;;;18.15;48.93;102391.44;10441952;28;20285;-69
2023/04/09 10:08:36;;;;;;;;;;;;;;;21.32;47.23;102384.97;10458767;28;19968;-66
2023/04/09 10:14:00;;;;;;;;;;;;;;;19.81;48.12;102392.69;10458649;28;20006;-66
2023/04/09 10:19:02;;;;;;;;;;;;;;;20.16;44.73;102382.16;10457723;28;19947;-67
2023/04/09 10:24:06;;;;;;;;;;;;;;;21.06;43.65;102367.50;10458636;28;19924;-67
2023/04/09 10:29:12;;;;;;;;;;;;;;;21.02;43.01;102364.25;10456778;28;19929;-68
2023/04/09 10:34:16;;;;;;;;;;;;;;;20.55;43.97;102358.88;10458103;28;20426;-67
2023/04/09 10:39:18;;;;;;;;;;;;;;;22.85;42.75;102353.09;10456722;28;19929;-67
2023/04/09 10:44:25;;;;;;;;;;;;;;;23.22;41.99;102348.16;10440014;28;20319;-68
2023/04/09 10:49:30;;;;;;;;;;;;;;;23.16;39.91;102343.34;10457001;28;19932;-69
2023/04/09 10:54:32;;;;;;;;;;;;;;;21.67;40.94;102336.06;10456041;28;19925;-68
2023/04/09 10:59:35;;;;;;;;;;;;;;;23.16;40.59;102335.31;10457102;28;19925;-67
2023/04/09 11:04:49;;;;;;;;;;;;;;;24.07;41.15;102336.19;10456668;28;19925;-67
2023/04/09 11:09:51;;;;;;;;;;;;;;;22.62;39.02;102324.72;10456187;28;20023;-67
2023/04/09 11:14:54;;;;;;;;;;;;;;;23.29;41.54;102319.91;10456674;28;20322;-68
2023/04/09 11:19:56;;;;;;;;;;;;;;;25.57;38.62;102312.31;10457312;28;20004;-68
2023/04/09 11:24:58;;;;;;;;;;;;;;;25.40;38.52;102305.91;10455979;28;19928;-68
2023/04/09 11:30:00;;;;;;;;;;;;;;;24.14;36.45;102304.34;10456609;28;19928;-68
2023/04/09 11:35:03;;;;;;;;;;;;;;;24.30;36.22;102295.75;10456235;28;19928;-68
2023/04/09 11:40:06;;;;;;;;;;;;;;;25.49;34.99;102290.75;10456983;28;19925;-68
2023/04/09 11:45:09;;;;;;;;;;;;;;;24.56;36.66;102295.16;10465321;28;19947;-68
2023/04/09 11:50:12;;;;;;;;;;;;;;;24.82;36.38;102290.88;10463836;28;19924;-67
2023/04/09 11:55:27;;;;;;;;;;;;;;;20.58;39.38;102299.28;10463185;28;19928;-67
2023/04/09 12:00:30;;;;;;;;;;;;;;;23.43;39.98;102309.81;10462843;28;20280;-68
2023/04/09 12:05:32;;;;;;;;;;;;;;;22.25;40.03;102295.75;10462577;28;20240;-67
2023/04/09 12:10:35;;;;;;;;;;;;;;;24.13;38.76;102299.97;10463650;28;20342;-67
2023/04/09 12:15:45;;;;;;;;;;;;;;;20.86;41.08;102290.03;10463512;28;20368;-67
2023/04/09 12:20:48;;;;;;;;;;;;;;;22.83;36.55;102286.50;10462313;28;19974;-67
2023/04/09 12:25:50;;;;;;;;;;;;;;;21.34;39.56;102291.63;10461913;28;20019;-67
2023/04/09 12:30:53;;;;;;;;;;;;;;;24.15;37.46;102281.13;10459561;28;19952;-68
2023/04/09 12:35:57;;;;;;;;;;;;;;;23.37;37.88;102280.00;10461414;28;19929;-67
2023/04/09 12:41:00;;;;;;;;;;;;;;;23.54;39.14;102278.50;10463073;28;19932;-67
2023/04/09 12:46:02;;;;;;;;;;;;;;;24.50;38.26;102263.59;10461348;28;19924;-67
2023/04/09 12:51:05;;;;;;;;;;;;;;;22.67;38.56;102264.78;10462034;28;20026;-67
2023/04/09 12:56:07;;;;;;;;;;;;;;;21.90;39.01;102261.38;10461583;28;20318;-67
2023/04/09 13:01:09;;;;;;;;;;;;;;;20.65;41.43;102273.09;10461004;28;19948;-67
2023/04/09 13:06:12;;;;;;;;;;;;;;;23.36;40.29;102266.78;10443295;28;20263;-67
2023/04/09 13:11:14;;;;;;;;;;;;;;;24.20;37.78;102260.97;10460630;28;19925;-67
2023/04/09 13:16:16;;;;;;;;;;;;;;;21.80;40.49;102263.94;10460816;28;19932;-67
2023/04/09 13:21:19;;;;;;;;;;;;;;;23.33;41.30;102259.88;10461626;28;19935;-67
2023/04/09 13:26:21;;;;;;;;;;;;;;;22.50;37.88;102264.38;10459425;28;20330;-67
2023/04/09 13:31:23;;;;;;;;;;;;;;;23.64;38.39;102265.16;10458436;28;20016;-67
2023/04/09 13:36:26;;;;;;;;;;;;;;;24.85;37.58;102246.91;10459630;28;19964;-67
2023/04/09 13:41:30;;;;;;;;;;;;;;;23.19;36.39;102241.56;10458513;28;19928;-67
2023/04/09 13:46:32;;;;;;;;;;;;;;;21.74;36.89;102236.94;10454575;28;19971;-67
2023/04/09 13:51:35;;;;;;;;;;;;;;;24.42;35.94;102230.34;10459706;28;20458;-67
2023/04/09 13:56:37;;;;;;;;;;;;;;;24.31;36.83;102235.88;10460334;28;19925;-67
2023/04/09 14:01:39;;;;;;;;;;;;;;;22.70;39.26;102243.16;10458621;28;19925;-66
2023/04/09 14:06:42;;;;;;;;;;;;;;;22.19;39.01;102232.28;10458144;28;20379;-67
2023/04/09 14:11:44;;;;;;;;;;;;;;;20.46;41.56;102236.34;10457835;28;19925;-66
2023/04/09 14:16:47;;;;;;;;;;;;;;;23.10;37.86;102235.19;10459585;28;19928;-67
2023/04/09 14:21:52;;;;;;;;;;;;;;;21.55;38.24;102219.78;10458448;28;19935;-67
2023/04/09 14:26:54;;;;;;;;;;;;;;;23.04;38.08;102217.00;10452814;28;20339;-67
2023/04/09 14:31:56;;;;;;;;;;;;;;;22.21;36.30;102202.81;10447418;28;19925;-66
2023/04/09 14:36:58;;;;;;;;;;;;;;;21.94;36.91;102203.28;10452663;28;19940;-66
2023/04/09 14:42:01;;;;;;;;;;;;;;;23.29;35.99;102213.03;10455894;28;19925;-67
2023/04/09 14:47:03;;;;;;;;;;;;;;;26.45;35.99;102200.72;10451020;28;19925;-67
2023/04/09 14:52:05;;;;;;;;;;;;;;;23.66;35.26;102196.34;10456873;28;20004;-67
2023/04/09 14:57:07;;;;;;;;;;;;;;;23.65;34.39;102185.78;10458238;28;19924;-67
2023/04/09 15:02:10;;;;;;;;;;;;;;;22.73;34.54;102193.00;10457088;28;19935;-66
2023/04/09 15:07:12;;;;;;;;;;;;;;;24.03;36.04;102192.13;10454702;28;19932;-67
2023/04/09 15:12:15;;;;;;;;;;;;;;;26.10;32.36;102178.34;10456891;28;19932;-66
2023/04/09 15:17:17;;;;;;;;;;;;;;;24.05;33.88;102184.81;10456656;28;19932;-66
2023/04/09 15:22:19;;;;;;;;;;;;;;;23.29;35.72;102180.97;10456689;28;20016;-67
2023/04/09 15:27:22;;;;;;;;;;;;;;;24.03;34.36;102168.06;10456703;28;19925;-66
2023/04/09 15:32:27;;;;;;;;;;;;;;;21.92;34.50;102147.44;10454707;28;21283;-67
2023/04/09 15:37:30;;;;;;;;;;;;;;;22.50;35.14;102149.63;10457210;28;19929;-66
2023/04/09 15:42:32;;;;;;;;;;;;;;;22.75;34.59;102147.50;10456148;28;19924;-66
2023/04/09 15:47:34;;;;;;;;;;;;;;;22.27;35.48;102143.59;10455335;28;19940;-67
2023/04/09 15:52:36;;;;;;;;;;;;;;;22.71;35.14;102125.56;10456070;28;19932;-66
2023/04/09 15:57:38;;;;;;;;;;;;;;;22.45;35.44;102114.50;10456776;28;19925;-66
2023/04/09 16:02:41;;;;;;;;;;;;;;;23.19;35.20;102114.16;10454181;28;19933;-66
2023/04/09 16:07:43;;;;;;;;;;;;;;;22.17;35.05;102116.84;10455900;28;19925;-66
2023/04/09 16:12:46;;;;;;;;;;;;;;;22.30;35.97;102124.69;10454674;28;19925;-66
2023/04/09 16:17:48;;;;;;;;;;;;;;;20.42;37.14;102134.66;10456447;28;19978;-66
2023/04/09 16:22:50;;;;;;;;;;;;;;;21.43;36.96;102127.53;10454819;28;20012;-67
2023/04/09 16:27:52;;;;;;;;;;;;;;;20.44;37.94;102124.75;10457591;28;19932;-66
2023/04/09 16:32:55;;;;;;;;;;;;;;;21.16;37.38;102126.16;10462307;28;19925;-66
2023/04/09 16:37:57;;;;;;;;;;;;;;;19.65;37.71;102128.09;10463697;28;19924;-66
2023/04/09 16:43:00;;;;;;;;;;;;;;;19.54;39.03;102125.38;10462443;28;19948;-66
2023/04/09 16:48:04;;;;;;;;;;;;;;;19.69;37.98;102123.38;10462013;28;19976;-66
2023/04/09 16:53:07;;;;;;;;;;;;;;;18.48;40.12;102119.72;10461940;28;19999;-65
2023/04/09 16:58:09;;;;;;;;;;;;;;;18.70;40.61;102134.97;10461721;28;19928;-66
2023/04/09 17:03:11;;;;;;;;;;;;;;;17.81;41.11;102126.84;10460094;28;19925;-66
2023/04/09 17:08:14;;;;;;;;;;;;;;;18.18;40.66;102124.38;10421289;28;19940;-65
2023/04/09 17:13:17;;;;;;;;;;;;;;;17.90;42.83;102122.75;10460894;28;19974;-66
2023/04/09 17:18:19;;;;;;;;;;;;;;;17.49;43.45;102120.22;10462068;28;19924;-65
2023/04/09 17:23:22;;;;;;;;;;;;;;;17.16;45.53;102119.63;10461357;28;19928;-65
2023/04/09 17:28:24;;;;;;;;;;;;;;;16.90;44.88;102118.66;10461030;28;19925;-65
2023/04/09 17:33:26;;;;;;;;;;;;;;;15.99;47.74;102113.63;10460805;28;19932;-65
2023/04/09 17:38:30;;;;;;;;;;;;;;;16.03;46.63;102116.91;10461157;28;19924;-65
2023/04/09 17:43:32;;;;;;;;;;;;;;;15.74;47.09;102107.09;10461282;28;19932;-65
2023/04/09 17:48:35;;;;;;;;;;;;;;;15.49;47.07;102115.59;10460261;28;19990;-65
2023/04/09 17:53:37;;;;;;;;;;;;;;;14.92;50.67;102112.63;10460160;28;19929;-65
2023/04/09 17:58:40;;;;;;;;;;;;;;;14.75;51.14;102124.94;10459409;28;19929;-65
2023/04/09 18:03:44;;;;;;;;;;;;;;;13.91;54.85;102130.16;10459763;28;20277;-65
2023/04/09 18:08:48;;;;;;;;;;;;;;;13.90;53.71;102124.06;10459449;28;20272;-65
2023/04/09 18:13:51;;;;;;;;;;;;;;;13.50;56.19;102128.66;10459815;28;19932;-65
2023/04/09 18:18:53;;;;;;;;;;;;;;;12.99;57.48;102130.16;10459042;28;20348;-64
2023/04/09 18:23:55;;;;;;;;;;;;;;;12.83;57.77;102122.13;10459634;28;19971;-65
2023/04/09 18:28:58;;;;;;;;;;;;;;;12.68;59.81;102131.56;10458708;28;20430;-64
2023/04/09 18:34:02;;;;;;;;;;;;;;;12.33;60.25;102135.75;10457262;28;20355;-67
2023/04/09 18:39:04;;;;;;;;;;;;;;;12.21;62.01;102130.09;10458399;28;19931;-65
2023/04/09 18:44:07;;;;;;;;;;;;;;;11.80;63.16;102129.19;10458754;28;19925;-65
2023/04/09 18:49:09;;;;;;;;;;;;;;;11.75;64.33;102129.41;10458015;28;19925;-65
2023/04/09 18:54:12;;;;;;;;;;;;;;;11.49;66.03;102136.53;10458485;28;19925;-65
2023/04/09 18:59:15;;;;;;;;;;;;;;;11.32;65.44;102131.13;10457724;28;20058;-65
2023/04/09 19:04:17;;;;;;;;;;;;;;;11.20;66.12;102137.69;10458129;28;19925;-65
2023/04/09 19:09:20;;;;;;;;;;;;;;;11.01;67.50;102140.16;10458003;28;19935;-65
2023/04/09 19:14:23;;;;;;;;;;;;;;;10.71;67.73;102144.78;10457906;28;19974;-64
2023/04/09 19:19:26;;;;;;;;;;;;;;;10.77;68.54;102150.63;10457914;28;19925;-64
2023/04/09 19:24:28;;;;;;;;;;;;;;;10.63;69.02;102146.81;10457601;28;20020;-65
2023/04/09 19:29:31;;;;;;;;;;;;;;;10.37;69.48;102154.69;10457194;28;19925;-65
2023/04/09 19:34:33;;;;;;;;;;;;;;;10.29;71.19;102153.19;10456754;28;19925;-65
2023/04/09 19:39:35;;;;;;;;;;;;;;;10.21;71.15;102151.69;10457307;28;19924;-64
2023/04/09 19:44:37;;;;;;;;;;;;;;;10.03;72.62;102153.16;10457141;28;19932;-64
2023/04/09 19:49:40;;;;;;;;;;;;;;;9.96;72.73;102161.28;10456406;28;20399;-65
2023/04/09 19:54:42;;;;;;;;;;;;;;;9.99;73.02;102145.50;10455872;28;19929;-65
2023/04/09 19:59:45;;;;;;;;;;;;;;;9.86;73.11;102131.94;10456290;28;20396;-65
2023/04/09 20:04:51;;;;;;;;;;;;;;;9.76;73.80;102136.63;10463952;28;19925;-65
2023/04/09 20:09:53;;;;;;;;;;;;;;;9.64;73.02;102130.03;10464149;28;19925;-64
2023/04/09 20:14:56;;;;;;;;;;;;;;;9.42;75.53;102124.63;10464563;28;19925;-64
2023/04/09 20:19:58;;;;;;;;;;;;;;;9.52;75.42;102122.59;10464367;28;20411;-64
2023/04/09 20:25:00;;;;;;;;;;;;;;;9.27;76.66;102133.81;10464295;28;19955;-65
2023/04/09 20:30:03;;;;;;;;;;;;;;;9.30;76.08;102125.03;10463171;28;20415;-64
2023/04/09 20:35:07;;;;;;;;;;;;;;;9.38;75.06;102124.78;10463284;28;19948;-64
2023/04/09 20:40:12;;;;;;;;;;;;;;;9.64;73.11;102108.25;10463821;28;19931;-64
2023/04/09 20:45:15;;;;;;;;;;;;;;;9.32;74.56;102102.31;10463537;28;19932;-64
2023/04/09 20:50:18;;;;;;;;;;;;;;;9.17;73.65;102093.19;10462665;28;19979;-65
2023/04/09 20:55:20;;;;;;;;;;;;;;;9.09;75.31;102084.72;10463107;28;19935;-64
2023/04/09 21:00:23;;;;;;;;;;;;;;;9.23;74.82;102094.72;10462956;28;19924;-64
2023/04/09 21:05:25;;;;;;;;;;;;;;;8.88;75.24;102097.53;10459391;28;19925;-64
2023/04/09 21:10:27;;;;;;;;;;;;;;;8.91;76.79;102096.59;10460354;28;19951;-64
2023/04/09 21:15:29;;;;;;;;;;;;;;;8.76;76.21;102095.28;10460002;28;19978;-64
2023/04/09 21:20:32;;;;;;;;;;;;;;;8.96;76.63;102104.28;10474995;28;19924;-64
2023/04/09 21:25:34;;;;;;;;;;;;;;;8.67;77.75;102100.75;10462758;28;20410;-64
2023/04/09 21:30:37;;;;;;;;;;;;;;;8.77;77.59;102091.75;10461179;28;19925;-64
2023/04/09 21:35:39;;;;;;;;;;;;;;;8.66;79.32;102097.31;10459246;28;19925;-64
2023/04/09 21:40:41;;;;;;;;;;;;;;;8.63;78.65;102091.31;10460740;28;20299;-65
2023/04/09 21:45:43;;;;;;;;;;;;;;;8.57;78.75;102092.31;10468444;22;19971;-66
2023/04/09 21:50:46;;;;;;;;;;;;;;;8.55;79.01;102084.53;10460212;28;19925;-66
2023/04/09 21:55:48;;;;;;;;;;;;;;;8.45;79.11;102090.06;10459817;28;19933;-66
2023/04/09 22:00:50;;;;;;;;;;;;;;;8.49;80.14;102094.28;10460652;28;19925;-66
2023/04/09 22:05:53;;;;;;;;;;;;;;;8.32;79.88;102092.13;10459633;28;19931;-65
2023/04/09 22:10:55;;;;;;;;;;;;;;;8.28;80.00;102095.72;10459490;28;19925;-66
2023/04/09 22:15:57;;;;;;;;;;;;;;;8.35;79.09;102089.44;10457438;28;19925;-65
2023/04/09 22:21:00;;;;;;;;;;;;;;;8.33;79.16;102102.50;10459792;28;20007;-65
2023/04/09 22:26:02;;;;;;;;;;;;;;;8.28;79.64;102106.16;10458017;28;20429;-65
2023/04/09 22:31:04;;;;;;;;;;;;;;;8.55;78.72;102105.41;10457955;28;19924;-65
2023/04/09 22:36:07;;;;;;;;;;;;;;;8.42;77.04;102098.78;10456853;28;19925;-66
2023/04/09 22:41:09;;;;;;;;;;;;;;;8.73;75.35;102092.75;10458366;28;20322;-65
2023/04/09 22:46:11;;;;;;;;;;;;;;;8.95;72.31;102090.38;10457470;28;19932;-65
2023/04/09 22:51:14;;;;;;;;;;;;;;;8.86;74.53;102090.63;10457951;28;20372;-65
2023/04/09 22:56:18;;;;;;;;;;;;;;;8.88;73.17;102091.47;10454989;28;19975;-65
2023/04/09 23:01:20;;;;;;;;;;;;;;;9.10;71.98;102083.81;10457705;28;19995;-65
2023/04/09 23:06:23;;;;;;;;;;;;;;;9.09;71.61;102089.94;10458146;28;19925;-65
2023/04/09 23:11:26;;;;;;;;;;;;;;;9.17;71.89;102084.50;10457125;28;19924;-65
2023/04/09 23:16:28;;;;;;;;;;;;;;;9.06;71.25;102071.75;10456160;28;19929;-65
2023/04/09 23:21:30;;;;;;;;;;;;;;;9.23;70.70;102071.22;10457715;28;19925;-65
2023/04/09 23:26:33;;;;;;;;;;;;;;;9.18;70.45;102066.16;10455982;28;19925;-65
2023/04/09 23:31:35;;;;;;;;;;;;;;;9.39;70.03;102063.75;10455753;28;20386;-65
2023/04/09 23:36:37;;;;;;;;;;;;;;;9.19;69.80;102060.00;10455277;28;19931;-65
2023/04/09 23:41:40;;;;;;;;;;;;;;;9.20;71.64;102051.28;10457331;28;19925;-65
2023/04/09 23:46:42;;;;;;;;;;;;;;;9.34;69.83;102052.59;10456693;28;19935;-65
2023/04/09 23:51:44;;;;;;;;;;;;;;;9.30;70.73;102052.69;10455328;28;19932;-65
2023/04/09 23:56:46;;;;;;;;;;;;;;;9.31;70.80;102050.91;10437271;28;20376;-65
